Time;durP1;ratioP1;P1;durP2;ratioP2;P2;SDS_P1;SDS_P2;PMS_P1;PMS_P2;Temp;Humidity;BMP_temperature;BMP_pressure;BME280_temperature;BME280_humidity;BME280_pressure;Samples;Min_cycle;Max_cycle;Signal;HPM_P1;HPM_P2
2023/11/15 00:00:52;;;;;;;0.00;0.00;;;;;;;;;;4980147;28;20115;-91
2023/11/15 00:03:21;;;;;;;0.00;0.00;;;;;;;;;;4968189;28;20051;-90
2023/11/15 00:05:49;;;;;;;0.00;0.00;;;;;;;;;;4969638;28;20057;-89
2023/11/15 00:08:16;;;;;;;0.00;0.00;;;;;;;;;;4969226;28;20055;-90
2023/11/15 00:10:46;;;;;;;0.00;0.00;;;;;;;;;;4968713;28;20118;-90
2023/11/15 00:13:14;;;;;;;0.00;0.00;;;;;;;;;;4968314;28;20061;-90
2023/11/15 00:15:45;;;;;;;0.00;0.00;;;;;;;;;;4967971;28;20147;-89
2023/11/15 00:18:13;;;;;;;0.00;0.00;;;;;;;;;;4984848;28;20142;-90
2023/11/15 00:20:42;;;;;;;0.00;0.00;;;;;;;;;;4963744;29;20067;-89
2023/11/15 00:23:11;;;;;;;0.00;0.00;;;;;;;;;;4966240;28;20120;-91
2023/11/15 00:25:40;;;;;;;0.00;0.00;;;;;;;;;;4968457;28;20042;-90
2023/11/15 00:28:08;;;;;;;0.00;0.00;;;;;;;;;;4969349;28;20149;-91
2023/11/15 00:30:35;;;;;;;0.00;0.00;;;;;;;;;;4970727;28;20047;-90
2023/11/15 00:33:05;;;;;;;0.00;0.00;;;;;;;;;;4971318;28;20078;-90
2023/11/15 00:35:33;;;;;;;0.00;0.00;;;;;;;;;;4971599;28;20051;-90
2023/11/15 00:38:05;;;;;;;0.00;0.00;;;;;;;;;;4988502;28;20065;-90
2023/11/15 00:40:34;;;;;;;0.00;0.00;;;;;;;;;;4971407;28;20074;-89
2023/11/15 00:43:03;;;;;;;0.00;0.00;;;;;;;;;;4977199;28;20063;-90
2023/11/15 00:45:31;;;;;;;0.00;0.00;;;;;;;;;;4972771;28;20141;-90
2023/11/15 00:48:02;;;;;;;0.00;0.00;;;;;;;;;;4987926;28;20055;-90
2023/11/15 00:50:38;;;;;;;0.00;0.00;;;;;;;;;;4971119;28;20133;-90
2023/11/15 00:53:07;;;;;;;0.00;0.00;;;;;;;;;;4970345;28;20101;-90
2023/11/15 00:55:36;;;;;;;0.00;0.00;;;;;;;;;;4971752;28;20058;-90
2023/11/15 00:58:08;;;;;;;0.00;0.00;;;;;;;;;;4971544;28;20050;-89
2023/11/15 01:00:48;;;;;;;0.00;0.00;;;;;;;;;;4972931;28;20114;-90
2023/11/15 01:03:26;;;;;;;0.00;0.00;;;;;;;;;;4970206;28;20066;-90
2023/11/15 01:05:55;;;;;;;0.00;0.00;;;;;;;;;;4971836;28;20078;-90
2023/11/15 01:08:24;;;;;;;0.00;0.00;;;;;;;;;;4971102;28;20051;-90
2023/11/15 01:10:54;;;;;;;0.00;0.00;;;;;;;;;;4970361;28;20054;-90
2023/11/15 01:13:26;;;;;;;0.00;0.00;;;;;;;;;;4970378;28;20077;-90
2023/11/15 01:15:56;;;;;;;0.00;0.00;;;;;;;;;;4973781;28;20051;-90
2023/11/15 01:18:24;;;;;;;0.00;0.00;;;;;;;;;;4970607;28;20051;-91
2023/11/15 01:20:52;;;;;;;0.10;0.10;;;;;;;;;;4968229;28;20054;-91
2023/11/15 01:23:20;;;;;;;0.03;0.03;;;;;;;;;;4986429;28;20082;-91
2023/11/15 01:25:48;;;;;;;0.03;0.03;;;;;;;;;;4970349;28;20323;-89
2023/11/15 01:28:16;;;;;;;0.00;0.00;;;;;;;;;;4974862;28;20049;-90
2023/11/15 01:30:46;;;;;;;0.00;0.00;;;;;;;;;;4970696;28;20265;-90
2023/11/15 01:33:14;;;;;;;0.00;0.00;;;;;;;;;;4969785;28;20055;-90
2023/11/15 01:39:17;;;;;;;0.00;0.00;;;;;;;;;;4986835;28;20154;-91
2023/11/15 01:41:58;;;;;;;0.00;0.00;;;;;;;;;;4971981;28;20057;-91
2023/11/15 01:44:27;;;;;;;0.00;0.00;;;;;;;;;;4970418;28;20402;-90
2023/11/15 01:46:55;;;;;;;0.10;0.10;;;;;;;;;;4986588;28;20035;-91
2023/11/15 01:49:26;;;;;;;0.00;0.00;;;;;;;;;;4970674;28;20051;-91
2023/11/15 01:51:54;;;;;;;0.00;0.00;;;;;;;;;;4969264;28;20059;-89
2023/11/15 01:54:27;;;;;;;0.00;0.00;;;;;;;;;;4986940;28;20111;-90
2023/11/15 01:56:55;;;;;;;0.00;0.00;;;;;;;;;;4969835;28;20061;-90
2023/11/15 01:59:25;;;;;;;0.00;0.00;;;;;;;;;;4970021;28;20070;-91
2023/11/15 02:02:01;;;;;;;0.00;0.00;;;;;;;;;;4970157;28;20053;-91
2023/11/15 02:04:33;;;;;;;0.10;0.10;;;;;;;;;;4972764;28;20327;-90
2023/11/15 02:07:00;;;;;;;0.00;0.00;;;;;;;;;;4975958;28;20118;-90
2023/11/15 02:09:33;;;;;;;0.00;0.00;;;;;;;;;;4970779;28;20061;-90
2023/11/15 02:12:10;;;;;;;0.00;0.00;;;;;;;;;;4971461;28;20046;-90
2023/11/15 02:14:39;;;;;;;0.00;0.00;;;;;;;;;;4986607;28;20054;-90
2023/11/15 02:17:08;;;;;;;0.00;0.00;;;;;;;;;;4970669;28;20086;-89
2023/11/15 02:19:36;;;;;;;0.00;0.00;;;;;;;;;;4966243;29;20067;-91
2023/11/15 02:22:05;;;;;;;0.00;0.00;;;;;;;;;;4968747;28;20059;-91
2023/11/15 02:24:37;;;;;;;0.00;0.00;;;;;;;;;;4971061;28;20396;-90
2023/11/15 02:27:04;;;;;;;0.00;0.00;;;;;;;;;;4970184;28;20163;-90
2023/11/15 02:33:07;;;;;;;0.00;0.00;;;;;;;;;;4985879;28;20042;-90
2023/11/15 02:35:35;;;;;;;0.00;0.00;;;;;;;;;;4969834;28;20055;-90
2023/11/15 02:38:03;;;;;;;0.00;0.00;;;;;;;;;;4986422;28;20430;-90
2023/11/15 02:40:30;;;;;;;0.00;0.00;;;;;;;;;;4969340;28;20086;-91
2023/11/15 02:42:57;;;;;;;0.00;0.00;;;;;;;;;;4969644;28;20051;-89
2023/11/15 02:45:26;;;;;;;0.00;0.00;;;;;;;;;;4969500;28;20078;-89
2023/11/15 02:47:53;;;;;;;0.00;0.00;;;;;;;;;;4987028;28;20074;-90
2023/11/15 02:50:21;;;;;;;0.00;0.00;;;;;;;;;;4970446;28;20552;-90
2023/11/15 02:52:48;;;;;;;0.00;0.00;;;;;;;;;;4969058;28;20166;-90
2023/11/15 02:55:18;;;;;;;0.00;0.00;;;;;;;;;;4986175;28;20155;-90
2023/11/15 02:57:45;;;;;;;0.00;0.00;;;;;;;;;;4969470;28;20050;-91
2023/11/15 03:00:40;;;;;;;0.00;0.00;;;;;;;;;;4970378;28;20057;-90
2023/11/15 03:03:08;;;;;;;0.03;0.03;;;;;;;;;;4986879;28;20080;-90
2023/11/15 03:05:36;;;;;;;0.00;0.00;;;;;;;;;;4971289;28;20085;-90
2023/11/15 03:08:05;;;;;;;0.00;0.00;;;;;;;;;;4972812;28;20050;-90
2023/11/15 03:10:33;;;;;;;0.00;0.00;;;;;;;;;;4989474;28;20388;-90
2023/11/15 03:13:03;;;;;;;0.10;0.10;;;;;;;;;;4973833;28;20061;-90
2023/11/15 03:15:36;;;;;;;0.10;0.10;;;;;;;;;;4989883;28;20046;-91
2023/11/15 03:18:07;;;;;;;0.03;0.03;;;;;;;;;;4976288;28;20050;-90
2023/11/15 03:20:37;;;;;;;0.00;0.00;;;;;;;;;;4971935;28;20062;-91
2023/11/15 03:23:09;;;;;;;0.00;0.00;;;;;;;;;;4971229;28;20039;-90
2023/11/15 03:25:37;;;;;;;0.00;0.00;;;;;;;;;;4972878;28;20051;-90
2023/11/15 03:28:08;;;;;;;0.00;0.00;;;;;;;;;;4989945;28;20113;-90
2023/11/15 03:30:38;;;;;;;0.00;0.00;;;;;;;;;;4977829;28;20123;-90
2023/11/15 03:33:07;;;;;;;0.00;0.00;;;;;;;;;;4973274;28;20071;-90
2023/11/15 03:35:35;;;;;;;0.00;0.00;;;;;;;;;;4973183;28;20376;-90
2023/11/15 03:38:08;;;;;;;0.00;0.00;;;;;;;;;;4974168;28;20063;-89
2023/11/15 03:40:36;;;;;;;0.00;0.00;;;;;;;;;;4973684;28;20046;-91
2023/11/15 03:43:05;;;;;;;0.05;0.05;;;;;;;;;;4973363;28;20055;-91
2023/11/15 03:45:37;;;;;;;0.00;0.00;;;;;;;;;;4973060;28;20051;-90
2023/11/15 03:48:07;;;;;;;0.00;0.00;;;;;;;;;;4973285;28;20097;-91
2023/11/15 03:50:35;;;;;;;0.10;0.10;;;;;;;;;;4972006;28;20046;-90
2023/11/15 03:53:02;;;;;;;0.00;0.00;;;;;;;;;;4972078;28;20066;-90
2023/11/15 03:55:32;;;;;;;0.00;0.00;;;;;;;;;;4989159;28;20071;-90
2023/11/15 03:58:00;;;;;;;0.00;0.00;;;;;;;;;;4971537;28;20061;-89
2023/11/15 04:00:31;;;;;;;0.00;0.00;;;;;;;;;;4988278;28;20110;-90
2023/11/15 04:03:06;;;;;;;0.00;0.00;;;;;;;;;;4971674;28;20106;-90
2023/11/15 04:05:51;;;;;;;0.00;0.00;;;;;;;;;;4973587;28;20057;-90
2023/11/15 04:08:23;;;;;;;0.00;0.00;;;;;;;;;;4972726;28;20062;-91
2023/11/15 04:11:04;;;;;;;0.08;0.08;;;;;;;;;;4975262;28;20114;-91
2023/11/15 04:13:36;;;;;;;0.00;0.00;;;;;;;;;;4973270;28;20414;-89
2023/11/15 04:16:05;;;;;;;0.00;0.00;;;;;;;;;;4972090;28;20157;-91
2023/11/15 04:18:35;;;;;;;0.00;0.00;;;;;;;;;;4971174;28;20061;-90
2023/11/15 04:21:04;;;;;;;0.00;0.00;;;;;;;;;;4971017;28;20455;-91
2023/11/15 04:23:39;;;;;;;0.00;0.00;;;;;;;;;;4971657;28;20051;-90
2023/11/15 04:26:12;;;;;;;0.10;0.10;;;;;;;;;;4972161;28;20090;-90
2023/11/15 04:28:40;;;;;;;0.00;0.00;;;;;;;;;;4969225;28;20331;-90
2023/11/15 04:31:10;;;;;;;0.00;0.00;;;;;;;;;;4970577;28;20051;-91
2023/11/15 04:33:38;;;;;;;0.00;0.00;;;;;;;;;;4969534;28;20081;-90
2023/11/15 04:36:05;;;;;;;0.00;0.00;;;;;;;;;;4986592;28;20078;-89
2023/11/15 04:38:36;;;;;;;0.00;0.00;;;;;;;;;;4969629;28;20050;-90
2023/11/15 04:41:05;;;;;;;0.00;0.00;;;;;;;;;;4969751;28;20387;-90
2023/11/15 04:54:05;;;;;;;0.00;0.00;;;;;;;;;;5048175;23;20498;-90
2023/11/15 04:56:34;;;;;;;0.10;0.10;;;;;;;;;;4968273;29;20114;-91
2023/11/15 04:59:02;;;;;;;0.00;0.00;;;;;;;;;;4951997;29;20051;-90
2023/11/15 05:01:32;;;;;;;0.00;0.00;;;;;;;;;;4951815;29;20048;-90
2023/11/15 05:04:03;;;;;;;0.00;0.00;;;;;;;;;;4957589;28;20107;-90
2023/11/15 05:06:31;;;;;;;0.00;0.00;;;;;;;;;;4973645;28;20066;-90
2023/11/15 05:09:01;;;;;;;0.05;0.05;;;;;;;;;;4952093;29;20257;-90
2023/11/15 05:11:29;;;;;;;0.03;0.03;;;;;;;;;;4951352;29;20122;-91
2023/11/15 05:14:06;;;;;;;0.00;0.00;;;;;;;;;;4955661;28;20058;-91
2023/11/15 05:16:34;;;;;;;0.00;0.00;;;;;;;;;;4950544;29;20121;-92
2023/11/15 05:19:05;;;;;;;0.03;0.03;;;;;;;;;;4952899;28;20351;-91
2023/11/15 05:21:37;;;;;;;0.10;0.10;;;;;;;;;;4950319;29;20053;-91
2023/11/15 05:24:06;;;;;;;0.10;0.10;;;;;;;;;;4951720;29;20051;-91
2023/11/15 05:26:37;;;;;;;0.10;0.10;;;;;;;;;;4951034;28;20446;-90
2023/11/15 05:29:06;;;;;;;0.10;0.10;;;;;;;;;;4965939;28;20055;-90
2023/11/15 05:31:39;;;;;;;0.10;0.10;;;;;;;;;;4950038;28;20051;-92
2023/11/15 05:34:19;;;;;;;0.00;0.00;;;;;;;;;;4952098;29;20122;-90
2023/11/15 05:37:03;;;;;;;0.00;0.00;;;;;;;;;;4950470;28;20078;-91
2023/11/15 05:39:31;;;;;;;0.10;0.10;;;;;;;;;;4949759;28;20055;-90
2023/11/15 05:42:07;;;;;;;0.00;0.00;;;;;;;;;;4949843;29;20066;-91
2023/11/15 05:44:37;;;;;;;0.10;0.10;;;;;;;;;;4948781;29;20163;-90
2023/11/15 05:47:06;;;;;;;0.00;0.00;;;;;;;;;;4949421;29;20090;-90
2023/11/15 05:49:34;;;;;;;0.10;0.10;;;;;;;;;;4948167;29;20071;-91
2023/11/15 05:52:14;;;;;;;0.10;0.10;;;;;;;;;;4949317;29;20055;-91
2023/11/15 05:54:47;;;;;;;0.08;0.08;;;;;;;;;;4965109;29;20062;-90
2023/11/15 05:57:24;;;;;;;0.00;0.00;;;;;;;;;;4950154;29;20055;-91
2023/11/15 05:59:55;;;;;;;0.05;0.05;;;;;;;;;;4949029;29;20314;-90
2023/11/15 06:02:35;;;;;;;0.10;0.10;;;;;;;;;;4951910;28;20031;-91
2023/11/15 06:05:04;;;;;;;0.08;0.08;;;;;;;;;;4949047;29;20423;-90
2023/11/15 06:07:32;;;;;;;0.00;0.00;;;;;;;;;;4949536;29;20054;-90
2023/11/15 18:19:11;;;;;;;0.30;0.30;;;;;;;;;;4983080;28;20035;-89
2023/11/15 18:21:55;;;;;;;0.00;0.00;;;;;;;;;;5003874;28;20042;-88
2023/11/15 18:24:30;;;;;;;0.00;0.00;;;;;;;;;;4985800;28;20050;-89
2023/11/15 18:27:03;;;;;;;0.00;0.00;;;;;;;;;;4984995;28;20074;-88
2023/11/15 18:29:44;;;;;;;0.00;0.00;;;;;;;;;;4986022;28;20410;-89
2023/11/15 18:32:14;;;;;;;0.00;0.00;;;;;;;;;;4986877;28;20054;-89
2023/11/15 18:34:55;;;;;;;0.00;0.00;;;;;;;;;;4987106;28;20050;-89
2023/11/15 18:37:37;;;;;;;0.00;0.00;;;;;;;;;;4992676;28;20078;-89
2023/11/15 18:40:11;;;;;;;0.00;0.00;;;;;;;;;;4990573;28;20066;-88
2023/11/15 18:42:54;;;;;;;0.00;0.00;;;;;;;;;;4964664;28;20046;-88
2023/11/15 18:45:34;;;;;;;0.00;0.00;;;;;;;;;;4991362;28;20054;-88
2023/11/15 18:52:30;;;;;;;0.00;0.00;;;;;;;;;;5108052;28;20097;-90
2023/11/15 18:55:13;;;;;;;0.00;0.00;;;;;;;;;;5098612;28;20131;-88
2023/11/15 18:57:55;;;;;;;0.13;0.13;;;;;;;;;;5099852;28;20028;-89
2023/11/15 19:00:26;;;;;;;0.00;0.00;;;;;;;;;;5097278;28;20056;-90
2023/11/15 19:03:07;;;;;;;0.00;0.00;;;;;;;;;;5095444;28;20032;-89
2023/11/15 19:12:37;;;;;;;0.00;0.00;;;;;;;;;;5997525;22;20051;-91
2023/11/15 19:15:11;;;;;;;0.00;0.00;;;;;;;;;;5125812;28;20116;-87
2023/11/15 19:17:54;;;;;;;0.08;0.05;;;;;;;;;;5126226;28;20048;-90
2023/11/15 19:20:51;;;;;;;;;;;;;;;;;;;;;
2023/11/15 19:23:32;;;;;;;0.00;0.00;;;;;;;;;;5144670;28;20055;-89
2023/11/15 19:26:30;;;;;;;0.00;0.00;;;;;;;;;;5144772;27;20043;-91
2023/11/15 19:29:15;;;;;;;0.00;0.00;;;;;;;;;;5141799;28;20056;-90
2023/11/15 19:31:57;;;;;;;0.00;0.00;;;;;;;;;;5129590;27;20410;-88
2023/11/15 19:34:41;;;;;;;0.00;0.00;;;;;;;;;;5127434;28;20051;-89
2023/11/15 19:37:30;;;;;;;0.10;0.10;;;;;;;;;;5127754;28;20055;-89
2023/11/15 19:40:11;;;;;;;0.00;0.00;;;;;;;;;;5123246;28;20074;-89
2023/11/15 19:42:51;;;;;;;0.00;0.00;;;;;;;;;;5123281;28;20142;-89
2023/11/15 19:45:35;;;;;;;0.00;0.00;;;;;;;;;;5126330;28;20146;-89
2023/11/15 19:48:07;;;;;;;0.10;0.10;;;;;;;;;;5123940;28;20047;-90
2023/11/15 19:50:38;;;;;;;0.00;0.00;;;;;;;;;;5124582;28;20392;-88
2023/11/15 19:53:20;;;;;;;0.00;0.00;;;;;;;;;;5123054;28;20039;-89
2023/11/15 19:56:03;;;;;;;0.00;0.00;;;;;;;;;;5122877;27;20087;-89
2023/11/15 19:58:46;;;;;;;0.08;0.08;;;;;;;;;;5433737;22;20059;-88
2023/11/15 20:01:20;;;;;;;1.02;0.98;;;;;;;;;;5127352;28;20440;-90
2023/11/15 20:04:04;;;;;;;0.00;0.00;;;;;;;;;;5107610;28;20070;-87
2023/11/15 20:06:47;;;;;;;0.10;0.10;;;;;;;;;;5110565;28;20085;-90
2023/11/15 20:09:31;;;;;;;0.00;0.00;;;;;;;;;;5106269;28;20058;-89
2023/11/15 20:12:13;;;;;;;0.00;0.00;;;;;;;;;;5110948;28;20307;-89
2023/11/15 20:14:54;;;;;;;0.00;0.00;;;;;;;;;;5120147;27;20038;-89
2023/11/15 20:17:35;;;;;;;0.00;0.00;;;;;;;;;;5119469;27;20051;-88
2023/11/15 20:20:16;;;;;;;0.10;0.00;;;;;;;;;;5112002;28;20039;-89
2023/11/15 20:23:00;;;;;;;0.10;0.10;;;;;;;;;;5111164;28;20185;-89
2023/11/15 20:25:43;;;;;;;0.00;0.00;;;;;;;;;;5110236;28;20083;-90
2023/11/15 20:28:28;;;;;;;0.00;0.00;;;;;;;;;;5125476;28;20328;-89
2023/11/15 20:31:13;;;;;;;0.00;0.00;;;;;;;;;;5110085;28;20047;-89
2023/11/15 20:33:53;;;;;;;0.25;0.22;;;;;;;;;;5108259;28;20047;-88
2023/11/15 20:36:21;;;;;;;0.00;0.00;;;;;;;;;;5126803;28;20119;-88
2023/11/15 20:38:56;;;;;;;;;;;;;;;;;;5111125;28;20119;-88
2023/11/15 20:41:45;;;;;;;0.00;0.00;;;;;;;;;;5110936;28;19979;-89
2023/11/15 20:44:23;;;;;;;0.00;0.00;;;;;;;;;;5109930;28;20051;-89
2023/11/15 20:46:51;;;;;;;0.00;0.00;;;;;;;;;;5108866;28;20062;-88
2023/11/15 20:49:23;;;;;;;0.00;0.00;;;;;;;;;;5109812;28;20095;-89
2023/11/15 20:52:28;;;;;;;0.03;0.03;;;;;;;;;;5109578;28;20108;-88
2023/11/15 20:55:12;;;;;;;0.00;0.00;;;;;;;;;;5109023;28;20048;-89
2023/11/15 20:57:59;;;;;;;0.35;0.30;;;;;;;;;;5201644;22;20055;-89
2023/11/15 21:00:40;;;;;;;;;;;;;;;;;;5108271;28;20048;-89
2023/11/15 21:03:18;;;;;;;0.00;0.00;;;;;;;;;;5125071;28;20098;-89
2023/11/15 21:06:18;;;;;;;0.00;0.00;;;;;;;;;;5125057;28;20069;-89
2023/11/15 21:08:49;;;;;;;0.00;0.00;;;;;;;;;;5126607;28;20059;-89
2023/11/15 21:11:27;;;;;;;0.38;0.38;;;;;;;;;;5107791;28;20051;-89
2023/11/15 21:14:08;;;;;;;0.05;0.05;;;;;;;;;;5107366;28;20035;-90
2023/11/15 21:16:39;;;;;;;0.22;0.22;;;;;;;;;;5107491;28;20061;-90
2023/11/15 21:19:09;;;;;;;0.55;0.55;;;;;;;;;;5108839;28;20048;-89
2023/11/15 21:21:49;;;;;;;0.00;0.00;;;;;;;;;;5112847;28;20042;-90
2023/11/15 21:24:18;;;;;;;0.00;0.00;;;;;;;;;;5108030;28;20381;-88
2023/11/15 21:26:48;;;;;;;0.08;0.08;;;;;;;;;;5124874;27;20418;-89
2023/11/15 21:29:29;;;;;;;0.00;0.00;;;;;;;;;;5108296;28;20058;-90
2023/11/15 21:32:09;;;;;;;1.10;0.25;;;;;;;;;;5125502;28;20059;-89
2023/11/15 21:34:37;;;;;;;0.00;0.00;;;;;;;;;;5107555;28;20107;-89
2023/11/15 21:37:07;;;;;;;0.00;0.00;;;;;;;;;;5125089;28;20051;-89
2023/11/15 21:39:47;;;;;;;0.00;0.00;;;;;;;;;;5108353;28;20378;-88
2023/11/15 21:42:15;;;;;;;0.05;0.05;;;;;;;;;;5132196;27;20031;-88
2023/11/15 21:44:45;;;;;;;25.88;3.65;;;;;;;;;;5108504;28;20043;-89
2023/11/15 21:47:26;;;;;;;0.00;0.00;;;;;;;;;;5109059;28;20435;-89
2023/11/15 21:50:18;;;;;;;0.00;0.00;;;;;;;;;;5111501;28;20073;-90
2023/11/15 21:53:03;;;;;;;0.00;0.00;;;;;;;;;;5110034;28;20082;-89
2023/11/15 21:55:44;;;;;;;0.80;0.40;;;;;;;;;;5107252;28;20069;-88
2023/11/15 21:58:14;;;;;;;0.00;0.00;;;;;;;;;;5108048;28;20099;-88
2023/11/15 22:00:55;;;;;;;2.97;2.80;;;;;;;;;;5112587;28;20058;-89
2023/11/15 22:03:23;;;;;;;0.00;0.00;;;;;;;;;;5108438;28;20048;-88
2023/11/15 22:05:51;;;;;;;0.05;0.05;;;;;;;;;;5124227;28;20079;-88
2023/11/15 22:08:19;;;;;;;1.95;0.30;;;;;;;;;;5106880;28;20423;-89
2023/11/15 22:10:49;;;;;;;0.20;0.20;;;;;;;;;;5107470;28;20047;-89
2023/11/15 22:13:17;;;;;;;0.00;0.00;;;;;;;;;;5126908;28;20081;-88
2023/11/15 22:15:47;;;;;;;0.10;0.10;;;;;;;;;;5109085;28;20059;-88
2023/11/15 22:18:40;;;;;;;0.05;0.05;;;;;;;;;;5092497;28;20149;-88
2023/11/15 22:21:22;;;;;;;0.47;0.13;;;;;;;;;;5107434;28;20032;-89
2023/11/15 22:23:51;;;;;;;1.13;0.95;;;;;;;;;;5107183;28;20066;-89
2023/11/15 22:26:19;;;;;;;0.13;0.13;;;;;;;;;;5107859;28;20057;-89
2023/11/15 22:28:53;;;;;;;0.20;0.20;;;;;;;;;;5107349;28;20070;-89
2023/11/15 22:31:25;;;;;;;0.10;0.10;;;;;;;;;;5125149;28;20047;-89
2023/11/15 22:34:07;;;;;;;0.10;0.10;;;;;;;;;;5107245;28;20039;-90
2023/11/15 22:36:43;;;;;;;0.52;0.52;;;;;;;;;;5107055;28;20143;-90
2023/11/15 22:39:12;;;;;;;0.00;0.00;;;;;;;;;;5105918;28;20086;-89
2023/11/15 22:41:40;;;;;;;0.00;0.00;;;;;;;;;;5105558;28;20111;-89
2023/11/15 22:44:12;;;;;;;0.10;0.10;;;;;;;;;;5126457;28;20052;-89
2023/11/15 22:46:40;;;;;;;0.00;0.00;;;;;;;;;;5117804;27;20035;-89
2023/11/15 22:49:21;;;;;;;0.00;0.00;;;;;;;;;;5108308;28;20048;-89
2023/11/15 22:52:01;;;;;;;0.00;0.00;;;;;;;;;;5108620;28;20067;-88
2023/11/15 22:54:42;;;;;;;0.00;0.00;;;;;;;;;;5108142;28;20110;-88
2023/11/15 22:57:23;;;;;;;0.00;0.00;;;;;;;;;;5107324;28;20056;-89
2023/11/15 23:00:04;;;;;;;0.00;0.00;;;;;;;;;;5107670;28;20123;-88
2023/11/15 23:02:48;;;;;;;0.00;0.00;;;;;;;;;;5108136;28;20044;-89
2023/11/15 23:05:17;;;;;;;0.00;0.00;;;;;;;;;;5110546;28;20051;-88
2023/11/15 23:07:45;;;;;;;0.00;0.00;;;;;;;;;;5112703;28;20055;-89
2023/11/15 23:10:14;;;;;;;0.00;0.00;;;;;;;;;;5125757;28;20048;-89
2023/11/15 23:12:50;;;;;;;0.00;0.00;;;;;;;;;;5111641;28;20051;-88
2023/11/15 23:15:30;;;;;;;0.10;0.10;;;;;;;;;;5107380;28;20055;-89
2023/11/15 23:18:13;;;;;;;0.20;0.20;;;;;;;;;;5108838;28;20036;-90
2023/11/15 23:23:52;;;;;;;0.28;0.28;;;;;;;;;;5125173;28;20330;-90
2023/11/15 23:26:21;;;;;;;0.82;0.40;;;;;;;;;;5111786;27;20147;-90
2023/11/15 23:28:52;;;;;;;0.10;0.10;;;;;;;;;;5114740;28;20044;-90
2023/11/15 23:31:21;;;;;;;1.98;0.73;;;;;;;;;;5107323;28;20051;-91
2023/11/15 23:34:01;;;;;;;0.10;0.10;;;;;;;;;;5111489;28;20426;-89
2023/11/15 23:36:35;;;;;;;0.10;0.10;;;;;;;;;;5113170;28;20074;-90
2023/11/15 23:39:12;;;;;;;0.57;0.52;;;;;;;;;;5114816;28;20051;-90
2023/11/15 23:41:44;;;;;;;0.23;0.10;;;;;;;;;;5110907;28;20051;-91
2023/11/15 23:44:12;;;;;;;0.20;0.15;;;;;;;;;;5111295;28;20068;-91
2023/11/15 23:46:42;;;;;;;0.00;0.00;;;;;;;;;;5111804;28;20047;-91
2023/11/15 23:49:17;;;;;;;0.60;0.20;;;;;;;;;;5112392;28;20134;-91
2023/11/15 23:51:48;;;;;;;0.15;0.15;;;;;;;;;;5112183;28;20347;-90
2023/11/15 23:54:16;;;;;;;0.00;0.00;;;;;;;;;;5111868;28;20043;-90
2023/11/15 23:56:47;;;;;;;0.00;0.00;;;;;;;;;;5111509;28;20054;-90
2023/11/15 23:59:18;;;;;;;0.47;0.30;;;;;;;;;;5111624;28;20062;-91
